sensor_id;sensor_type;location;lat;lon;timestamp;temperature;humidity
3005;DHT22;1512;51.486;6.610;2022-09-01T00:02:40;19.60;74.10
3005;DHT22;1512;51.486;6.610;2022-09-01T00:06:50;19.70;75.20
3005;DHT22;1512;51.486;6.610;2022-09-01T00:11:00;19.70;74.50
3005;DHT22;1512;51.486;6.610;2022-09-01T00:15:10;19.70;74.90
3005;DHT22;1512;51.486;6.610;2022-09-01T00:19:20;19.70;73.90
3005;DHT22;1512;51.486;6.610;2022-09-01T00:23:29;19.60;74.70
3005;DHT22;1512;51.486;6.610;2022-09-01T00:27:38;19.60;74.70
3005;DHT22;1512;51.486;6.610;2022-09-01T00:31:47;19.60;75.70
3005;DHT22;1512;51.486;6.610;2022-09-01T00:35:55;19.60;74.90
3005;DHT22;1512;51.486;6.610;2022-09-01T00:40:05;19.50;75.80
3005;DHT22;1512;51.486;6.610;2022-09-01T00:44:17;19.50;75.50
3005;DHT22;1512;51.486;6.610;2022-09-01T00:48:51;19.40;74.90
3005;DHT22;1512;51.486;6.610;2022-09-01T00:53:01;19.40;77.50
3005;DHT22;1512;51.486;6.610;2022-09-01T00:57:11;19.20;77.70
3005;DHT22;1512;51.486;6.610;2022-09-01T01:01:20;19.20;77.90
3005;DHT22;1512;51.486;6.610;2022-09-01T01:05:31;19.20;77.00
3005;DHT22;1512;51.486;6.610;2022-09-01T01:09:42;19.10;77.90
3005;DHT22;1512;51.486;6.610;2022-09-01T01:14:04;19.10;79.00
3005;DHT22;1512;51.486;6.610;2022-09-01T01:18:15;19.00;78.90
3005;DHT22;1512;51.486;6.610;2022-09-01T01:26:58;18.90;80.60
3005;DHT22;1512;51.486;6.610;2022-09-01T01:31:13;18.80;80.00
3005;DHT22;1512;51.486;6.610;2022-09-01T01:35:22;18.80;81.30
3005;DHT22;1512;51.486;6.610;2022-09-01T01:39:31;18.70;82.00
3005;DHT22;1512;51.486;6.610;2022-09-01T01:43:40;18.70;82.60
3005;DHT22;1512;51.486;6.610;2022-09-01T01:47:51;18.60;83.60
3005;DHT22;1512;51.486;6.610;2022-09-01T01:52:00;18.60;83.90
3005;DHT22;1512;51.486;6.610;2022-09-01T01:56:13;18.60;84.60
3005;DHT22;1512;51.486;6.610;2022-09-01T02:00:30;18.50;85.70
3005;DHT22;1512;51.486;6.610;2022-09-01T02:04:37;18.50;85.30
3005;DHT22;1512;51.486;6.610;2022-09-01T02:08:47;18.50;85.10
3005;DHT22;1512;51.486;6.610;2022-09-01T02:12:56;18.60;85.20
3005;DHT22;1512;51.486;6.610;2022-09-01T02:17:06;18.50;85.40
3005;DHT22;1512;51.486;6.610;2022-09-01T02:21:34;18.60;86.20
3005;DHT22;1512;51.486;6.610;2022-09-01T02:25:44;18.50;85.60
3005;DHT22;1512;51.486;6.610;2022-09-01T02:29:55;18.50;86.40
3005;DHT22;1512;51.486;6.610;2022-09-01T02:34:06;18.50;87.20
3005;DHT22;1512;51.486;6.610;2022-09-01T02:38:19;18.50;87.60
3005;DHT22;1512;51.486;6.610;2022-09-01T02:42:30;18.40;87.20
3005;DHT22;1512;51.486;6.610;2022-09-01T02:46:41;18.30;86.70
3005;DHT22;1512;51.486;6.610;2022-09-01T02:50:50;18.20;86.40
3005;DHT22;1512;51.486;6.610;2022-09-01T02:54:59;18.20;87.60
3005;DHT22;1512;51.486;6.610;2022-09-01T02:59:09;18.20;87.50
3005;DHT22;1512;51.486;6.610;2022-09-01T03:03:20;18.20;87.70
3005;DHT22;1512;51.486;6.610;2022-09-01T03:07:29;18.20;88.00
3005;DHT22;1512;51.486;6.610;2022-09-01T03:11:40;18.20;90.20
3005;DHT22;1512;51.486;6.610;2022-09-01T03:15:50;18.10;88.80
3005;DHT22;1512;51.486;6.610;2022-09-01T03:19:58;18.10;89.70
3005;DHT22;1512;51.486;6.610;2022-09-01T03:24:13;18.00;90.10
3005;DHT22;1512;51.486;6.610;2022-09-01T03:28:23;18.00;90.30
3005;DHT22;1512;51.486;6.610;2022-09-01T03:32:32;18.00;90.40
3005;DHT22;1512;51.486;6.610;2022-09-01T03:36:40;18.00;90.60
3005;DHT22;1512;51.486;6.610;2022-09-01T03:40:54;18.00;90.80
3005;DHT22;1512;51.486;6.610;2022-09-01T03:45:06;18.00;91.20
3005;DHT22;1512;51.486;6.610;2022-09-01T03:49:16;17.90;91.30
3005;DHT22;1512;51.486;6.610;2022-09-01T03:53:26;17.90;91.40
3005;DHT22;1512;51.486;6.610;2022-09-01T03:57:36;17.90;92.00
3005;DHT22;1512;51.486;6.610;2022-09-01T04:01:47;17.90;92.20
3005;DHT22;1512;51.486;6.610;2022-09-01T04:05:57;17.80;92.10
3005;DHT22;1512;51.486;6.610;2022-09-01T04:10:11;17.80;92.20
3005;DHT22;1512;51.486;6.610;2022-09-01T04:14:20;17.80;92.30
3005;DHT22;1512;51.486;6.610;2022-09-01T04:18:29;17.70;92.70
3005;DHT22;1512;51.486;6.610;2022-09-01T04:22:37;17.70;92.40
3005;DHT22;1512;51.486;6.610;2022-09-01T04:26:48;17.60;92.90
3005;DHT22;1512;51.486;6.610;2022-09-01T04:30:57;17.60;93.20
3005;DHT22;1512;51.486;6.610;2022-09-01T04:35:25;17.60;93.80
3005;DHT22;1512;51.486;6.610;2022-09-01T04:39:35;17.50;93.90
3005;DHT22;1512;51.486;6.610;2022-09-01T04:43:47;17.50;93.90
3005;DHT22;1512;51.486;6.610;2022-09-01T04:47:57;17.50;94.00
3005;DHT22;1512;51.486;6.610;2022-09-01T04:52:07;17.50;94.40
3005;DHT22;1512;51.486;6.610;2022-09-01T04:56:17;17.50;94.80
3005;DHT22;1512;51.486;6.610;2022-09-01T05:00:48;17.50;94.80
3005;DHT22;1512;51.486;6.610;2022-09-01T05:04:59;17.50;95.20
3005;DHT22;1512;51.486;6.610;2022-09-01T05:09:12;17.40;96.30
3005;DHT22;1512;51.486;6.610;2022-09-01T05:13:21;17.40;96.20
3005;DHT22;1512;51.486;6.610;2022-09-01T05:17:30;17.40;96.70
3005;DHT22;1512;51.486;6.610;2022-09-01T05:21:39;17.30;97.40
3005;DHT22;1512;51.486;6.610;2022-09-01T05:26:13;17.30;97.70
3005;DHT22;1512;51.486;6.610;2022-09-01T05:30:23;17.30;98.40
3005;DHT22;1512;51.486;6.610;2022-09-01T05:34:34;17.20;99.00
3005;DHT22;1512;51.486;6.610;2022-09-01T05:38:45;17.20;99.60
3005;DHT22;1512;51.486;6.610;2022-09-01T05:42:54;17.10;99.90
3005;DHT22;1512;51.486;6.610;2022-09-01T05:47:03;17.00;99.90
3005;DHT22;1512;51.486;6.610;2022-09-01T05:51:13;17.10;99.90
3005;DHT22;1512;51.486;6.610;2022-09-01T05:55:26;17.20;99.90
3005;DHT22;1512;51.486;6.610;2022-09-01T05:59:35;17.20;99.90
3005;DHT22;1512;51.486;6.610;2022-09-01T06:03:45;17.10;99.90
3005;DHT22;1512;51.486;6.610;2022-09-01T06:07:54;17.20;99.90
3005;DHT22;1512;51.486;6.610;2022-09-01T06:12:04;17.20;99.90
3005;DHT22;1512;51.486;6.610;2022-09-01T06:16:14;17.20;99.90
3005;DHT22;1512;51.486;6.610;2022-09-01T06:20:25;17.10;99.90
3005;DHT22;1512;51.486;6.610;2022-09-01T06:24:34;17.10;99.90
3005;DHT22;1512;51.486;6.610;2022-09-01T06:28:44;17.20;99.90
3005;DHT22;1512;51.486;6.610;2022-09-01T06:32:53;17.20;99.90
3005;DHT22;1512;51.486;6.610;2022-09-01T06:37:02;17.30;99.90
3005;DHT22;1512;51.486;6.610;2022-09-01T06:41:11;17.30;99.90
3005;DHT22;1512;51.486;6.610;2022-09-01T06:45:22;17.40;99.90
3005;DHT22;1512;51.486;6.610;2022-09-01T06:53:58;17.50;99.90
3005;DHT22;1512;51.486;6.610;2022-09-01T06:58:09;17.60;99.90
3005;DHT22;1512;51.486;6.610;2022-09-01T07:02:21;17.70;99.90
3005;DHT22;1512;51.486;6.610;2022-09-01T07:06:33;17.70;99.90
3005;DHT22;1512;51.486;6.610;2022-09-01T07:10:47;17.80;99.90
3005;DHT22;1512;51.486;6.610;2022-09-01T07:14:58;17.90;99.90
3005;DHT22;1512;51.486;6.610;2022-09-01T07:19:10;18.00;99.90
3005;DHT22;1512;51.486;6.610;2022-09-01T07:23:22;18.10;99.90
3005;DHT22;1512;51.486;6.610;2022-09-01T07:27:32;18.20;99.90
3005;DHT22;1512;51.486;6.610;2022-09-01T07:31:43;18.40;99.90
3005;DHT22;1512;51.486;6.610;2022-09-01T07:35:53;18.50;99.90
3005;DHT22;1512;51.486;6.610;2022-09-01T07:40:08;18.60;99.90
3005;DHT22;1512;51.486;6.610;2022-09-01T07:44:18;18.70;99.90
3005;DHT22;1512;51.486;6.610;2022-09-01T07:48:27;18.90;99.90
3005;DHT22;1512;51.486;6.610;2022-09-01T07:52:39;19.00;99.90
3005;DHT22;1512;51.486;6.610;2022-09-01T07:56:49;19.20;99.90
3005;DHT22;1512;51.486;6.610;2022-09-01T08:01:00;19.30;97.90
3005;DHT22;1512;51.486;6.610;2022-09-01T08:05:12;19.50;97.00
3005;DHT22;1512;51.486;6.610;2022-09-01T08:09:21;19.70;96.60
3005;DHT22;1512;51.486;6.610;2022-09-01T08:13:37;19.90;94.20
3005;DHT22;1512;51.486;6.610;2022-09-01T08:17:44;20.10;93.40
3005;DHT22;1512;51.486;6.610;2022-09-01T08:21:55;20.30;93.00
3005;DHT22;1512;51.486;6.610;2022-09-01T08:26:08;20.40;92.90
3005;DHT22;1512;51.486;6.610;2022-09-01T08:30:17;20.60;91.70
3005;DHT22;1512;51.486;6.610;2022-09-01T08:34:45;20.70;91.20
3005;DHT22;1512;51.486;6.610;2022-09-01T08:38:54;20.80;89.10
3005;DHT22;1512;51.486;6.610;2022-09-01T08:47:22;21.10;85.10
3005;DHT22;1512;51.486;6.610;2022-09-01T08:55:54;21.40;82.20
3005;DHT22;1512;51.486;6.610;2022-09-01T09:00:05;21.60;81.30
3005;DHT22;1512;51.486;6.610;2022-09-01T09:04:37;21.80;79.30
3005;DHT22;1512;51.486;6.610;2022-09-01T09:09:05;22.00;74.80
3005;DHT22;1512;51.486;6.610;2022-09-01T09:13:37;22.10;75.00
3005;DHT22;1512;51.486;6.610;2022-09-01T09:17:49;22.10;71.60
3005;DHT22;1512;51.486;6.610;2022-09-01T09:22:05;22.20;71.30
3005;DHT22;1512;51.486;6.610;2022-09-01T09:26:14;22.30;70.50
3005;DHT22;1512;51.486;6.610;2022-09-01T09:30:27;22.50;70.60
3005;DHT22;1512;51.486;6.610;2022-09-01T09:34:39;22.60;69.70
3005;DHT22;1512;51.486;6.610;2022-09-01T09:39:06;22.80;67.50
3005;DHT22;1512;51.486;6.610;2022-09-01T09:43:15;22.90;64.70
3005;DHT22;1512;51.486;6.610;2022-09-01T09:47:40;23.00;61.20
3005;DHT22;1512;51.486;6.610;2022-09-01T09:52:17;23.20;59.40
3005;DHT22;1512;51.486;6.610;2022-09-01T09:56:17;23.30;59.40
3005;DHT22;1512;51.486;6.610;2022-09-01T10:00:31;23.60;55.60
3005;DHT22;1512;51.486;6.610;2022-09-01T10:04:43;23.60;55.50
3005;DHT22;1512;51.486;6.610;2022-09-01T10:08:52;23.80;56.30
3005;DHT22;1512;51.486;6.610;2022-09-01T10:13:01;23.90;55.80
3005;DHT22;1512;51.486;6.610;2022-09-01T10:17:19;23.90;56.40
3005;DHT22;1512;51.486;6.610;2022-09-01T10:21:33;24.10;55.90
3005;DHT22;1512;51.486;6.610;2022-09-01T10:25:42;24.30;54.60
3005;DHT22;1512;51.486;6.610;2022-09-01T10:29:56;24.40;55.00
3005;DHT22;1512;51.486;6.610;2022-09-01T10:34:11;24.50;53.90
3005;DHT22;1512;51.486;6.610;2022-09-01T10:38:23;24.60;54.30
3005;DHT22;1512;51.486;6.610;2022-09-01T10:42:32;24.90;52.90
3005;DHT22;1512;51.486;6.610;2022-09-01T10:46:43;24.80;50.20
3005;DHT22;1512;51.486;6.610;2022-09-01T10:55:31;25.20;51.80
3005;DHT22;1512;51.486;6.610;2022-09-01T10:59:39;25.40;51.90
3005;DHT22;1512;51.486;6.610;2022-09-01T11:03:52;25.40;51.60
3005;DHT22;1512;51.486;6.610;2022-09-01T11:17:35;25.70;51.80
3005;DHT22;1512;51.486;6.610;2022-09-01T11:21:45;25.80;50.10
3005;DHT22;1512;51.486;6.610;2022-09-01T11:25:59;25.90;51.20
3005;DHT22;1512;51.486;6.610;2022-09-01T11:30:19;26.00;49.30
3005;DHT22;1512;51.486;6.610;2022-09-01T11:34:24;26.10;48.10
3005;DHT22;1512;51.486;6.610;2022-09-01T11:38:46;26.00;49.80
3005;DHT22;1512;51.486;6.610;2022-09-01T11:42:53;26.10;48.50
3005;DHT22;1512;51.486;6.610;2022-09-01T11:47:16;26.20;48.00
3005;DHT22;1512;51.486;6.610;2022-09-01T11:51:24;26.30;49.60
3005;DHT22;1512;51.486;6.610;2022-09-01T11:55:53;26.30;48.60
3005;DHT22;1512;51.486;6.610;2022-09-01T12:00:06;26.30;48.90
3005;DHT22;1512;51.486;6.610;2022-09-01T12:04:30;26.40;48.90
3005;DHT22;1512;51.486;6.610;2022-09-01T12:08:38;26.20;49.10
3005;DHT22;1512;51.486;6.610;2022-09-01T12:12:47;26.40;51.30
3005;DHT22;1512;51.486;6.610;2022-09-01T12:17:03;26.60;50.60
3005;DHT22;1512;51.486;6.610;2022-09-01T12:21:23;26.70;50.90
3005;DHT22;1512;51.486;6.610;2022-09-01T12:25:23;26.90;50.30
3005;DHT22;1512;51.486;6.610;2022-09-01T12:29:32;27.10;50.60
3005;DHT22;1512;51.486;6.610;2022-09-01T12:33:42;27.20;49.30
3005;DHT22;1512;51.486;6.610;2022-09-01T12:37:52;27.20;49.40
3005;DHT22;1512;51.486;6.610;2022-09-01T12:46:43;27.20;48.10
3005;DHT22;1512;51.486;6.610;2022-09-01T12:50:53;27.10;49.80
3005;DHT22;1512;51.486;6.610;2022-09-01T12:59:23;27.30;49.80
3005;DHT22;1512;51.486;6.610;2022-09-01T13:03:34;27.50;49.40
3005;DHT22;1512;51.486;6.610;2022-09-01T13:07:43;27.40;49.10
3005;DHT22;1512;51.486;6.610;2022-09-01T13:11:51;27.50;49.20
3005;DHT22;1512;51.486;6.610;2022-09-01T13:16:03;27.60;49.70
3005;DHT22;1512;51.486;6.610;2022-09-01T13:20:13;27.70;50.50
3005;DHT22;1512;51.486;6.610;2022-09-01T13:24:22;27.70;48.70
3005;DHT22;1512;51.486;6.610;2022-09-01T13:28:32;27.80;48.90
3005;DHT22;1512;51.486;6.610;2022-09-01T13:32:44;27.70;47.40
3005;DHT22;1512;51.486;6.610;2022-09-01T13:36:54;27.70;48.00
3005;DHT22;1512;51.486;6.610;2022-09-01T13:41:03;27.80;48.60
3005;DHT22;1512;51.486;6.610;2022-09-01T13:45:14;27.60;48.40
3005;DHT22;1512;51.486;6.610;2022-09-01T13:49:25;27.60;49.20
3005;DHT22;1512;51.486;6.610;2022-09-01T13:53:35;27.70;48.20
3005;DHT22;1512;51.486;6.610;2022-09-01T13:57:44;27.70;48.10
3005;DHT22;1512;51.486;6.610;2022-09-01T14:01:53;27.80;48.00
3005;DHT22;1512;51.486;6.610;2022-09-01T14:06:01;27.90;46.60
3005;DHT22;1512;51.486;6.610;2022-09-01T14:10:10;27.70;46.50
3005;DHT22;1512;51.486;6.610;2022-09-01T14:14:21;27.30;47.10
3005;DHT22;1512;51.486;6.610;2022-09-01T14:18:31;26.90;47.90
3005;DHT22;1512;51.486;6.610;2022-09-01T14:22:41;26.80;49.60
3005;DHT22;1512;51.486;6.610;2022-09-01T14:26:50;26.70;50.20
3005;DHT22;1512;51.486;6.610;2022-09-01T14:30:59;26.60;49.70
3005;DHT22;1512;51.486;6.610;2022-09-01T14:35:11;26.70;49.50
3005;DHT22;1512;51.486;6.610;2022-09-01T14:39:20;26.70;49.00
3005;DHT22;1512;51.486;6.610;2022-09-01T14:43:29;26.90;48.90
3005;DHT22;1512;51.486;6.610;2022-09-01T14:47:39;27.20;49.20
3005;DHT22;1512;51.486;6.610;2022-09-01T14:51:48;27.30;48.40
3005;DHT22;1512;51.486;6.610;2022-09-01T14:55:59;27.20;48.10
3005;DHT22;1512;51.486;6.610;2022-09-01T15:00:10;26.80;48.70
3005;DHT22;1512;51.486;6.610;2022-09-01T15:04:19;26.40;49.40
3005;DHT22;1512;51.486;6.610;2022-09-01T15:08:28;26.30;48.60
3005;DHT22;1512;51.486;6.610;2022-09-01T15:12:37;26.40;49.00
3005;DHT22;1512;51.486;6.610;2022-09-01T15:16:46;26.50;50.10
3005;DHT22;1512;51.486;6.610;2022-09-01T15:20:55;26.70;49.60
3005;DHT22;1512;51.486;6.610;2022-09-01T15:25:04;26.80;49.70
3005;DHT22;1512;51.486;6.610;2022-09-01T15:29:13;26.90;48.20
3005;DHT22;1512;51.486;6.610;2022-09-01T15:33:22;26.80;48.30
3005;DHT22;1512;51.486;6.610;2022-09-01T15:37:30;26.80;47.50
3005;DHT22;1512;51.486;6.610;2022-09-01T15:41:39;26.70;47.70
3005;DHT22;1512;51.486;6.610;2022-09-01T15:45:49;26.60;47.60
3005;DHT22;1512;51.486;6.610;2022-09-01T15:49:58;26.40;47.60
3005;DHT22;1512;51.486;6.610;2022-09-01T15:54:12;26.10;48.60
3005;DHT22;1512;51.486;6.610;2022-09-01T15:58:21;25.90;49.40
3005;DHT22;1512;51.486;6.610;2022-09-01T16:02:31;25.60;49.60
3005;DHT22;1512;51.486;6.610;2022-09-01T16:06:40;25.50;49.20
3005;DHT22;1512;51.486;6.610;2022-09-01T16:10:50;25.50;49.50
3005;DHT22;1512;51.486;6.610;2022-09-01T16:14:59;25.60;50.00
3005;DHT22;1512;51.486;6.610;2022-09-01T16:19:32;25.60;49.80
3005;DHT22;1512;51.486;6.610;2022-09-01T16:23:47;25.50;48.60
3005;DHT22;1512;51.486;6.610;2022-09-01T16:28:00;25.40;48.70
3005;DHT22;1512;51.486;6.610;2022-09-01T16:32:07;25.40;48.60
3005;DHT22;1512;51.486;6.610;2022-09-01T16:40:49;25.30;48.40
3005;DHT22;1512;51.486;6.610;2022-09-01T16:45:11;25.20;48.40
3005;DHT22;1512;51.486;6.610;2022-09-01T16:49:26;25.20;48.40
3005;DHT22;1512;51.486;6.610;2022-09-01T16:58:19;25.00;48.10
3005;DHT22;1512;51.486;6.610;2022-09-01T17:07:27;24.80;48.60
3005;DHT22;1512;51.486;6.610;2022-09-01T17:11:47;24.60;49.10
3005;DHT22;1512;51.486;6.610;2022-09-01T17:16:09;24.50;49.00
3005;DHT22;1512;51.486;6.610;2022-09-01T17:20:21;24.40;48.80
3005;DHT22;1512;51.486;6.610;2022-09-01T17:24:39;24.30;48.90
3005;DHT22;1512;51.486;6.610;2022-09-01T17:33:17;24.10;50.10
3005;DHT22;1512;51.486;6.610;2022-09-01T17:42:01;23.90;50.10
3005;DHT22;1512;51.486;6.610;2022-09-01T17:46:31;23.80;49.80
3005;DHT22;1512;51.486;6.610;2022-09-01T17:50:45;23.70;49.80
3005;DHT22;1512;51.486;6.610;2022-09-01T17:54:59;23.70;49.80
3005;DHT22;1512;51.486;6.610;2022-09-01T18:08:21;23.40;49.30
3005;DHT22;1512;51.486;6.610;2022-09-01T18:12:51;23.30;49.40
3005;DHT22;1512;51.486;6.610;2022-09-01T18:17:04;23.20;49.00
3005;DHT22;1512;51.486;6.610;2022-09-01T18:21:17;23.20;49.50
3005;DHT22;1512;51.486;6.610;2022-09-01T18:25:51;23.10;49.50
3005;DHT22;1512;51.486;6.610;2022-09-01T18:29:38;23.10;49.80
3005;DHT22;1512;51.486;6.610;2022-09-01T18:34:06;23.00;49.80
3005;DHT22;1512;51.486;6.610;2022-09-01T18:38:27;22.90;49.90
3005;DHT22;1512;51.486;6.610;2022-09-01T18:43:03;22.80;50.20
3005;DHT22;1512;51.486;6.610;2022-09-01T18:47:12;22.80;50.60
3005;DHT22;1512;51.486;6.610;2022-09-01T19:00:09;22.50;51.20
3005;DHT22;1512;51.486;6.610;2022-09-01T19:04:29;22.40;51.60
3005;DHT22;1512;51.486;6.610;2022-09-01T19:22:28;22.20;52.70
3005;DHT22;1512;51.486;6.610;2022-09-01T19:26:39;22.10;52.80
3005;DHT22;1512;51.486;6.610;2022-09-01T19:35:12;22.10;53.50
3005;DHT22;1512;51.486;6.610;2022-09-01T19:39:36;22.00;54.00
3005;DHT22;1512;51.486;6.610;2022-09-01T19:43:45;22.00;54.20
3005;DHT22;1512;51.486;6.610;2022-09-01T19:48:12;21.90;54.40
3005;DHT22;1512;51.486;6.610;2022-09-01T19:52:25;21.90;54.70
3005;DHT22;1512;51.486;6.610;2022-09-01T19:56:47;21.90;55.20
3005;DHT22;1512;51.486;6.610;2022-09-01T20:00:58;21.80;55.20
3005;DHT22;1512;51.486;6.610;2022-09-01T20:05:28;21.70;55.40
3005;DHT22;1512;51.486;6.610;2022-09-01T20:09:39;21.60;55.20
3005;DHT22;1512;51.486;6.610;2022-09-01T20:18:29;21.50;55.60
3005;DHT22;1512;51.486;6.610;2022-09-01T20:26:59;21.40;55.80
3005;DHT22;1512;51.486;6.610;2022-09-01T20:31:22;21.30;55.80
3005;DHT22;1512;51.486;6.610;2022-09-01T20:35:35;21.30;55.80
3005;DHT22;1512;51.486;6.610;2022-09-01T20:40:03;21.20;55.80
3005;DHT22;1512;51.486;6.610;2022-09-01T20:44:21;21.20;55.80
3005;DHT22;1512;51.486;6.610;2022-09-01T20:48:29;21.10;55.70
3005;DHT22;1512;51.486;6.610;2022-09-01T21:10:44;20.90;56.30
3005;DHT22;1512;51.486;6.610;2022-09-01T21:19:34;20.80;56.50
3005;DHT22;1512;51.486;6.610;2022-09-01T21:23:38;20.80;56.50
3005;DHT22;1512;51.486;6.610;2022-09-01T21:27:52;20.80;57.00
3005;DHT22;1512;51.486;6.610;2022-09-01T21:32:00;20.70;57.80
3005;DHT22;1512;51.486;6.610;2022-09-01T21:36:09;20.60;57.10
3005;DHT22;1512;51.486;6.610;2022-09-01T21:40:19;20.60;57.30
3005;DHT22;1512;51.486;6.610;2022-09-01T21:44:48;20.50;57.50
3005;DHT22;1512;51.486;6.610;2022-09-01T21:48:59;20.40;57.60
3005;DHT22;1512;51.486;6.610;2022-09-01T21:53:08;20.30;57.70
3005;DHT22;1512;51.486;6.610;2022-09-01T21:57:17;20.30;57.70
3005;DHT22;1512;51.486;6.610;2022-09-01T22:01:27;20.30;57.80
3005;DHT22;1512;51.486;6.610;2022-09-01T22:05:40;20.30;58.10
3005;DHT22;1512;51.486;6.610;2022-09-01T22:09:49;20.30;58.10
3005;DHT22;1512;51.486;6.610;2022-09-01T22:13:58;20.20;58.00
3005;DHT22;1512;51.486;6.610;2022-09-01T22:18:07;20.10;58.00
3005;DHT22;1512;51.486;6.610;2022-09-01T22:22:16;20.10;59.20
3005;DHT22;1512;51.486;6.610;2022-09-01T22:26:28;20.00;58.20
3005;DHT22;1512;51.486;6.610;2022-09-01T22:30:45;20.00;58.70
3005;DHT22;1512;51.486;6.610;2022-09-01T22:34:54;19.90;59.30
3005;DHT22;1512;51.486;6.610;2022-09-01T22:39:04;19.90;58.90
3005;DHT22;1512;51.486;6.610;2022-09-01T22:43:14;19.80;59.20
3005;DHT22;1512;51.486;6.610;2022-09-01T22:47:24;19.80;59.00
3005;DHT22;1512;51.486;6.610;2022-09-01T22:51:33;19.70;59.40
3005;DHT22;1512;51.486;6.610;2022-09-01T22:55:46;19.70;59.40
3005;DHT22;1512;51.486;6.610;2022-09-01T22:59:55;19.60;59.40
3005;DHT22;1512;51.486;6.610;2022-09-01T23:04:05;19.60;59.60
3005;DHT22;1512;51.486;6.610;2022-09-01T23:08:15;19.50;60.20
3005;DHT22;1512;51.486;6.610;2022-09-01T23:12:24;19.40;59.80
3005;DHT22;1512;51.486;6.610;2022-09-01T23:16:33;19.40;60.10
3005;DHT22;1512;51.486;6.610;2022-09-01T23:20:42;19.30;60.00
3005;DHT22;1512;51.486;6.610;2022-09-01T23:24:51;19.20;60.40
3005;DHT22;1512;51.486;6.610;2022-09-01T23:29:19;19.30;61.10
3005;DHT22;1512;51.486;6.610;2022-09-01T23:33:27;19.30;62.50
3005;DHT22;1512;51.486;6.610;2022-09-01T23:37:37;19.30;62.00
3005;DHT22;1512;51.486;6.610;2022-09-01T23:41:46;19.30;62.30
3005;DHT22;1512;51.486;6.610;2022-09-01T23:45:55;19.30;63.30
3005;DHT22;1512;51.486;6.610;2022-09-01T23:50:05;19.30;62.90
3005;DHT22;1512;51.486;6.610;2022-09-01T23:54:14;19.20;62.50
3005;DHT22;1512;51.486;6.610;2022-09-01T23:58:24;19.20;62.70
